sensor_id;sensor_type;location;lat;lon;timestamp;P1;durP1;ratioP1;P2;durP2;ratioP2
42144;SDS011;27813;43.516;11.890;2023-04-01T04:33:00;15.13;;;4.68;;
42144;SDS011;27813;43.516;11.890;2023-04-01T04:37:10;12.77;;;4.90;;
42144;SDS011;27813;43.516;11.890;2023-04-01T04:41:15;15.40;;;5.30;;
42144;SDS011;27813;43.516;11.890;2023-04-01T04:45:24;10.77;;;4.60;;
42144;SDS011;27813;43.516;11.890;2023-04-01T04:49:31;11.75;;;4.72;;
42144;SDS011;27813;43.516;11.890;2023-04-01T04:53:40;12.35;;;5.28;;
42144;SDS011;27813;43.516;11.890;2023-04-01T04:57:46;10.23;;;4.40;;
42144;SDS011;27813;43.516;11.890;2023-04-01T05:01:51;11.90;;;4.63;;
42144;SDS011;27813;43.516;11.890;2023-04-01T05:05:55;11.23;;;4.93;;
42144;SDS011;27813;43.516;11.890;2023-04-01T05:09:59;12.45;;;4.90;;
42144;SDS011;27813;43.516;11.890;2023-04-01T05:14:03;11.73;;;5.15;;
42144;SDS011;27813;43.516;11.890;2023-04-01T05:18:09;12.95;;;5.07;;
42144;SDS011;27813;43.516;11.890;2023-04-01T05:22:13;15.70;;;5.10;;
42144;SDS011;27813;43.516;11.890;2023-04-01T05:26:19;11.65;;;4.40;;
42144;SDS011;27813;43.516;11.890;2023-04-01T05:30:23;13.05;;;5.00;;
42144;SDS011;27813;43.516;11.890;2023-04-01T05:34:36;16.45;;;6.30;;
42144;SDS011;27813;43.516;11.890;2023-04-01T05:38:41;20.20;;;7.53;;
42144;SDS011;27813;43.516;11.890;2023-04-01T05:42:47;27.23;;;8.05;;
42144;SDS011;27813;43.516;11.890;2023-04-01T05:46:52;23.40;;;8.27;;
42144;SDS011;27813;43.516;11.890;2023-04-01T05:50:58;22.58;;;8.13;;
42144;SDS011;27813;43.516;11.890;2023-04-01T05:55:05;26.23;;;9.23;;
42144;SDS011;27813;43.516;11.890;2023-04-01T05:59:10;19.98;;;8.30;;
42144;SDS011;27813;43.516;11.890;2023-04-01T06:07:18;23.10;;;8.50;;
42144;SDS011;27813;43.516;11.890;2023-04-01T06:11:42;23.48;;;8.80;;
42144;SDS011;27813;43.516;11.890;2023-04-01T06:20:31;20.85;;;7.78;;
42144;SDS011;27813;43.516;11.890;2023-04-01T06:38:45;16.33;;;7.60;;
42144;SDS011;27813;43.516;11.890;2023-04-01T06:48:06;21.17;;;7.28;;
42144;SDS011;27813;43.516;11.890;2023-04-01T06:57:43;15.90;;;7.40;;
42144;SDS011;27813;43.516;11.890;2023-04-01T07:02:01;13.73;;;7.03;;
42144;SDS011;27813;43.516;11.890;2023-04-01T07:06:30;20.30;;;7.78;;
42144;SDS011;27813;43.516;11.890;2023-04-01T07:19:41;26.40;;;12.75;;
42144;SDS011;27813;43.516;11.890;2023-04-01T07:23:51;30.50;;;10.98;;
42144;SDS011;27813;43.516;11.890;2023-04-01T07:28:28;35.33;;;13.98;;
42144;SDS011;27813;43.516;11.890;2023-04-01T07:37:12;35.65;;;12.85;;
42144;SDS011;27813;43.516;11.890;2023-04-01T07:41:30;36.30;;;12.43;;
42144;SDS011;27813;43.516;11.890;2023-04-01T07:45:51;32.20;;;10.80;;
42144;SDS011;27813;43.516;11.890;2023-04-01T07:59:05;23.98;;;8.02;;
42144;SDS011;27813;43.516;11.890;2023-04-01T08:08:43;25.27;;;8.30;;
42144;SDS011;27813;43.516;11.890;2023-04-01T08:13:33;20.15;;;8.15;;
42144;SDS011;27813;43.516;11.890;2023-04-01T08:22:34;23.40;;;8.18;;
42144;SDS011;27813;43.516;11.890;2023-04-01T08:27:10;21.63;;;8.57;;
42144;SDS011;27813;43.516;11.890;2023-04-01T08:40:35;11.88;;;7.05;;
42144;SDS011;27813;43.516;11.890;2023-04-01T08:58:11;12.30;;;4.93;;
42144;SDS011;27813;43.516;11.890;2023-04-01T09:02:44;8.95;;;4.20;;
42144;SDS011;27813;43.516;11.890;2023-04-01T09:29:49;9.07;;;3.83;;
42144;SDS011;27813;43.516;11.890;2023-04-01T09:39:10;9.13;;;2.38;;
42144;SDS011;27813;43.516;11.890;2023-04-01T09:48:40;4.95;;;2.38;;
42144;SDS011;27813;43.516;11.890;2023-04-01T09:53:14;8.70;;;2.38;;
42144;SDS011;27813;43.516;11.890;2023-04-01T09:57:33;7.60;;;2.47;;
42144;SDS011;27813;43.516;11.890;2023-04-01T10:11:49;6.25;;;2.25;;
42144;SDS011;27813;43.516;11.890;2023-04-01T10:16:14;10.05;;;3.17;;
42144;SDS011;27813;43.516;11.890;2023-04-01T10:30:17;5.57;;;1.73;;
42144;SDS011;27813;43.516;11.890;2023-04-01T10:39:37;8.18;;;2.17;;
42144;SDS011;27813;43.516;11.890;2023-04-01T10:58:33;4.93;;;1.83;;
42144;SDS011;27813;43.516;11.890;2023-04-01T11:03:14;7.03;;;1.85;;
42144;SDS011;27813;43.516;11.890;2023-04-01T11:48:38;7.10;;;1.73;;
42144;SDS011;27813;43.516;11.890;2023-04-01T12:34:49;7.03;;;1.80;;
42144;SDS011;27813;43.516;11.890;2023-04-01T12:44:19;7.72;;;2.03;;
42144;SDS011;27813;43.516;11.890;2023-04-01T12:48:21;4.82;;;1.35;;
42144;SDS011;27813;43.516;11.890;2023-04-01T12:57:19;5.82;;;1.60;;
42144;SDS011;27813;43.516;11.890;2023-04-01T13:19:14;3.88;;;1.20;;
42144;SDS011;27813;43.516;11.890;2023-04-01T13:28:12;4.82;;;1.10;;
42144;SDS011;27813;43.516;11.890;2023-04-01T13:33:00;4.60;;;1.40;;
42144;SDS011;27813;43.516;11.890;2023-04-01T13:37:26;5.70;;;1.52;;
42144;SDS011;27813;43.516;11.890;2023-04-01T13:41:54;5.88;;;1.20;;
42144;SDS011;27813;43.516;11.890;2023-04-01T14:12:39;4.20;;;1.67;;
42144;SDS011;27813;43.516;11.890;2023-04-01T14:16:59;4.18;;;1.08;;
42144;SDS011;27813;43.516;11.890;2023-04-01T14:26:07;5.22;;;1.73;;
42144;SDS011;27813;43.516;11.890;2023-04-01T14:30:57;4.45;;;1.17;;
42144;SDS011;27813;43.516;11.890;2023-04-01T14:35:02;5.18;;;1.02;;
42144;SDS011;27813;43.516;11.890;2023-04-01T14:48:37;5.85;;;1.52;;
42144;SDS011;27813;43.516;11.890;2023-04-01T14:57:12;3.83;;;1.50;;
42144;SDS011;27813;43.516;11.890;2023-04-01T15:09:56;5.05;;;1.10;;
42144;SDS011;27813;43.516;11.890;2023-04-01T15:14:07;6.85;;;1.30;;
42144;SDS011;27813;43.516;11.890;2023-04-01T15:23:42;5.10;;;1.35;;
42144;SDS011;27813;43.516;11.890;2023-04-01T15:27:32;2.95;;;0.90;;
42144;SDS011;27813;43.516;11.890;2023-04-01T15:50:26;3.78;;;1.10;;
42144;SDS011;27813;43.516;11.890;2023-04-01T16:12:43;4.30;;;1.17;;
42144;SDS011;27813;43.516;11.890;2023-04-01T16:21:08;8.15;;;1.40;;
42144;SDS011;27813;43.516;11.890;2023-04-01T16:25:41;6.47;;;1.60;;
42144;SDS011;27813;43.516;11.890;2023-04-01T16:29:59;4.35;;;1.30;;
42144;SDS011;27813;43.516;11.890;2023-04-01T16:43:46;6.43;;;1.58;;
42144;SDS011;27813;43.516;11.890;2023-04-01T16:47:53;8.90;;;2.00;;
42144;SDS011;27813;43.516;11.890;2023-04-01T16:56:16;10.00;;;1.90;;
42144;SDS011;27813;43.516;11.890;2023-04-01T17:05:13;5.85;;;1.50;;
42144;SDS011;27813;43.516;11.890;2023-04-01T17:13:43;5.47;;;1.77;;
42144;SDS011;27813;43.516;11.890;2023-04-01T17:26:49;12.52;;;1.80;;
42144;SDS011;27813;43.516;11.890;2023-04-01T17:35:12;11.25;;;2.10;;
42144;SDS011;27813;43.516;11.890;2023-04-01T17:43:58;6.97;;;2.40;;
42144;SDS011;27813;43.516;11.890;2023-04-01T17:52:44;6.93;;;2.10;;
42144;SDS011;27813;43.516;11.890;2023-04-01T18:02:01;10.85;;;2.10;;
42144;SDS011;27813;43.516;11.890;2023-04-01T18:10:39;9.10;;;3.22;;
42144;SDS011;27813;43.516;11.890;2023-04-01T18:28:43;10.02;;;2.75;;
42144;SDS011;27813;43.516;11.890;2023-04-01T18:33:00;11.15;;;2.50;;
42144;SDS011;27813;43.516;11.890;2023-04-01T18:51:01;8.50;;;2.22;;
42144;SDS011;27813;43.516;11.890;2023-04-01T19:08:20;9.68;;;2.60;;
42144;SDS011;27813;43.516;11.890;2023-04-01T19:17:04;11.68;;;3.78;;
42144;SDS011;27813;43.516;11.890;2023-04-01T19:21:37;12.35;;;3.42;;
42144;SDS011;27813;43.516;11.890;2023-04-01T19:25:47;12.48;;;2.80;;
42144;SDS011;27813;43.516;11.890;2023-04-01T19:34:11;8.23;;;3.10;;
42144;SDS011;27813;43.516;11.890;2023-04-01T19:38:36;7.50;;;2.05;;
42144;SDS011;27813;43.516;11.890;2023-04-01T19:43:08;13.30;;;2.90;;
42144;SDS011;27813;43.516;11.890;2023-04-01T19:48:00;11.30;;;2.15;;
42144;SDS011;27813;43.516;11.890;2023-04-01T19:52:19;8.60;;;2.38;;
42144;SDS011;27813;43.516;11.890;2023-04-01T20:01:32;9.40;;;2.40;;
42144;SDS011;27813;43.516;11.890;2023-04-01T20:15:23;12.23;;;3.58;;
42144;SDS011;27813;43.516;11.890;2023-04-01T20:28:28;7.10;;;2.10;;
42144;SDS011;27813;43.516;11.890;2023-04-01T20:32:50;14.55;;;2.75;;
42144;SDS011;27813;43.516;11.890;2023-04-01T20:37:36;8.77;;;2.28;;
42144;SDS011;27813;43.516;11.890;2023-04-01T20:41:57;13.40;;;2.03;;
42144;SDS011;27813;43.516;11.890;2023-04-01T20:46:12;10.63;;;2.20;;
42144;SDS011;27813;43.516;11.890;2023-04-01T20:55:08;7.63;;;2.72;;
42144;SDS011;27813;43.516;11.890;2023-04-01T21:05:08;10.50;;;2.10;;
42144;SDS011;27813;43.516;11.890;2023-04-01T21:08:40;15.10;;;2.22;;
42144;SDS011;27813;43.516;11.890;2023-04-01T21:17:28;8.18;;;2.28;;
42144;SDS011;27813;43.516;11.890;2023-04-01T21:34:35;9.98;;;2.33;;
42144;SDS011;27813;43.516;11.890;2023-04-01T21:48:29;12.88;;;1.95;;
42144;SDS011;27813;43.516;11.890;2023-04-01T21:53:02;10.25;;;2.70;;
42144;SDS011;27813;43.516;11.890;2023-04-01T21:57:40;7.40;;;2.83;;
42144;SDS011;27813;43.516;11.890;2023-04-01T22:06:40;10.52;;;2.80;;
42144;SDS011;27813;43.516;11.890;2023-04-01T22:15:23;6.22;;;1.67;;
42144;SDS011;27813;43.516;11.890;2023-04-01T22:24:40;13.65;;;2.40;;
42144;SDS011;27813;43.516;11.890;2023-04-01T22:33:32;9.43;;;2.00;;
42144;SDS011;27813;43.516;11.890;2023-04-01T22:42:42;8.63;;;1.83;;
42144;SDS011;27813;43.516;11.890;2023-04-01T22:50:50;5.47;;;1.52;;
42144;SDS011;27813;43.516;11.890;2023-04-01T22:55:19;7.47;;;1.98;;
42144;SDS011;27813;43.516;11.890;2023-04-01T22:59:35;9.43;;;2.25;;
42144;SDS011;27813;43.516;11.890;2023-04-01T23:08:36;7.93;;;1.98;;
42144;SDS011;27813;43.516;11.890;2023-04-01T23:12:38;7.47;;;1.60;;
42144;SDS011;27813;43.516;11.890;2023-04-01T23:16:49;6.65;;;1.50;;
42144;SDS011;27813;43.516;11.890;2023-04-01T23:29:47;5.65;;;1.73;;
